Minerva Zenia — SYNB — position and weather

sailwx.info

Track history (hours):
 
Tides and Currents Weather Stations Pressure Air Temp Water Temp Dewpoint Dewpoint Depression Visibility Wind Speed Wind Dir Waves Ship Positions

Minerva Zenia

Last reported at 2014-Sep-30 19:33 UTC. Time now 2014-Sep-30 20:01 UTC.
Position N 57°41' E 010°57'.

Length 248 m; draft 8.3 m.

Type: Ship. MMSI: 240014000.

Date/timePositionNaut miles runAvg speedWind from/ knotsBaromVisibWave heightAir tempDewpointWater temp
2014-Sep-30 19:33N 57°41' E 010°57'1010.2
2014-Sep-30 18:34N 57°48' E 010°42'10 9.6
2014-Sep-30 17:34N 57°51' E 010°25'1110.7
2014-Sep-30 16:33N 57°51' E 010°05'1110.7
2014-Sep-30 15:32N 57°51' E 009°45'1110.8
2014-Sep-30 14:33N 57°51' E 009°25'1010.1
2014-Sep-30 13:34N 57°49' E 009°07'10 9.9
2014-Sep-30 12:34N 57°44' E 008°50'2310.0
2014-Sep-30 10:14N 57°33' E 008°12'1810.6
2014-Sep-30 08:32N 57°24' E 007°43'182 7.9
2014-Sep-29 09:26N 54°43' E 005°08'1011.3
2014-Sep-29 08:33N 54°33' E 005°04'1111.4
2014-Sep-29 07:33N 54°22' E 004°60'1111.2
2014-Sep-29 06:33N 54°12' E 004°54'1110.9
2014-Sep-29 05:34N 54°02' E 004°45'1110.6
2014-Sep-29 04:33N 53°54' E 004°34'1110.5
2014-Sep-29 03:33N 53°46' E 004°22'5110.2
2014-Sep-28 22:30N 53°06' E 003°28'1010.3
2014-Sep-28 21:33N 52°57' E 003°22'1110.8
2014-Sep-28 20:33N 52°47' E 003°14'2511.8
2014-Sep-28 18:28N 52°26' E 002°54'2412.4
2014-Sep-28 16:33N 52°03' E 002°41'1212.5
2014-Sep-28 15:33N 51°51' E 002°39'1312.8
2014-Sep-28 14:33N 51°40' E 002°27'1414.0
2014-Sep-28 13:34N 51°29' E 002°14'1312.9
2014-Sep-28 12:33N 51°17' E 002°07'1211.5
2014-Sep-28 11:33N 51°09' E 001°53'1110.5
2014-Sep-28 10:33N 51°03' E 001°40'10 9.7
2014-Sep-28 09:33N 50°56' E 001°29'9 8.9
2014-Sep-28 08:33N 50°48' E 001°24'20 9.2
2014-Sep-28 06:22N 50°32' E 001°04'8 9.6
2014-Sep-28 05:33N 50°29' E 000°53'10 9.9
2014-Sep-28 04:30N 50°26' E 000°37'9 9.9
2014-Sep-28 03:33N 50°24' E 000°23'1010.0
2014-Sep-28 02:33N 50°21' E 000°07'1110.5
2014-Sep-28 01:32N 50°18' W 000°09'4112.6
2014-Sep-27 22:15N 50°08' W 001°11'2714.3
2014-Sep-27 20:20N 50°00' W 001°53'  
2014-Sep-24 20:05N 39°02' W 009°51'18 9.9
2014-Sep-24 18:18N 38°44' W 009°51'7 8.9
2014-Sep-24 17:32N 38°37' W 009°49'21 9.1
2014-Sep-24 15:14N 38°17' W 009°43'7 9.3
2014-Sep-24 14:30N 38°10' W 009°41'9 9.4
2014-Sep-24 13:33N 38°01' W 009°39'10 9.7
2014-Sep-24 12:33N 37°52' W 009°36'10 9.6
2014-Sep-24 11:33N 37°43' W 009°33'9 9.1
2014-Sep-24 10:33N 37°34' W 009°31'3310.5
2014-Sep-24 07:26N 37°02' W 009°22'2712.0
2014-Sep-24 05:12N 36°42' W 008°59'813.1
2014-Sep-24 04:33N 36°39' W 008°49'1313.3
2014-Sep-24 03:33N 36°35' W 008°33'1312.9
2014-Sep-24 02:33N 36°31' W 008°18'14211.8
2014-Sep-23 14:32N 36°00' W 005°26'228 8.8
2014-Sep-22 12:32N 37°31' W 001°05'4 0.1
2014-Sep-21 07:18N 37°34' W 001°02'  
Track history (hours):
 
Tides and Currents Weather Stations Pressure Air Temp Water Temp Dewpoint Dewpoint Depression Visibility Wind Speed Wind Dir Waves Ship Positions

Minerva Zenia

Last reported at 2014-Sep-30 19:33 UTC. Time now 2014-Sep-30 20:01 UTC.
Position N 57°41' E 010°57'.

Length 248 m; draft 8.3 m.

Type: Ship. MMSI: 240014000.

Date/timePositionNaut miles runAvg speedWind from/ knotsBaromVisibWave heightAir tempDewpointWater temp
2014-Sep-30 19:33N 57°41' E 010°57'1010.2
2014-Sep-30 18:34N 57°48' E 010°42'10 9.6
2014-Sep-30 17:34N 57°51' E 010°25'1110.7
2014-Sep-30 16:33N 57°51' E 010°05'1110.7
2014-Sep-30 15:32N 57°51' E 009°45'1110.8
2014-Sep-30 14:33N 57°51' E 009°25'1010.1
2014-Sep-30 13:34N 57°49' E 009°07'10 9.9
2014-Sep-30 12:34N 57°44' E 008°50'2310.0
2014-Sep-30 10:14N 57°33' E 008°12'1810.6
2014-Sep-30 08:32N 57°24' E 007°43'182 7.9
2014-Sep-29 09:26N 54°43' E 005°08'1011.3
2014-Sep-29 08:33N 54°33' E 005°04'1111.4
2014-Sep-29 07:33N 54°22' E 004°60'1111.2
2014-Sep-29 06:33N 54°12' E 004°54'1110.9
2014-Sep-29 05:34N 54°02' E 004°45'1110.6
2014-Sep-29 04:33N 53°54' E 004°34'1110.5
2014-Sep-29 03:33N 53°46' E 004°22'5110.2
2014-Sep-28 22:30N 53°06' E 003°28'1010.3
2014-Sep-28 21:33N 52°57' E 003°22'1110.8
2014-Sep-28 20:33N 52°47' E 003°14'2511.8
2014-Sep-28 18:28N 52°26' E 002°54'2412.4
2014-Sep-28 16:33N 52°03' E 002°41'1212.5
2014-Sep-28 15:33N 51°51' E 002°39'1312.8
2014-Sep-28 14:33N 51°40' E 002°27'1414.0
2014-Sep-28 13:34N 51°29' E 002°14'1312.9
2014-Sep-28 12:33N 51°17' E 002°07'1211.5
2014-Sep-28 11:33N 51°09' E 001°53'1110.5
2014-Sep-28 10:33N 51°03' E 001°40'10 9.7
2014-Sep-28 09:33N 50°56' E 001°29'9 8.9
2014-Sep-28 08:33N 50°48' E 001°24'20 9.2
2014-Sep-28 06:22N 50°32' E 001°04'8 9.6
2014-Sep-28 05:33N 50°29' E 000°53'10 9.9
2014-Sep-28 04:30N 50°26' E 000°37'9 9.9
2014-Sep-28 03:33N 50°24' E 000°23'1010.0
2014-Sep-28 02:33N 50°21' E 000°07'1110.5
2014-Sep-28 01:32N 50°18' W 000°09'4112.6
2014-Sep-27 22:15N 50°08' W 001°11'2714.3
2014-Sep-27 20:20N 50°00' W 001°53'  
2014-Sep-24 20:05N 39°02' W 009°51'18 9.9
2014-Sep-24 18:18N 38°44' W 009°51'7 8.9
2014-Sep-24 17:32N 38°37' W 009°49'21 9.1
2014-Sep-24 15:14N 38°17' W 009°43'7 9.3
2014-Sep-24 14:30N 38°10' W 009°41'9 9.4
2014-Sep-24 13:33N 38°01' W 009°39'10 9.7
2014-Sep-24 12:33N 37°52' W 009°36'10 9.6
2014-Sep-24 11:33N 37°43' W 009°33'9 9.1
2014-Sep-24 10:33N 37°34' W 009°31'3310.5
2014-Sep-24 07:26N 37°02' W 009°22'2712.0
2014-Sep-24 05:12N 36°42' W 008°59'813.1
2014-Sep-24 04:33N 36°39' W 008°49'1313.3
2014-Sep-24 03:33N 36°35' W 008°33'1312.9
2014-Sep-24 02:33N 36°31' W 008°18'14211.8
2014-Sep-23 14:32N 36°00' W 005°26'228 8.8
2014-Sep-22 12:32N 37°31' W 001°05'4 0.1
2014-Sep-21 07:18N 37°34' W 001°02'  

Dump ship's entire track history